createdAt,value
2017-08-11T00:00:50.954Z,15.31
2017-08-11T00:03:18.424Z,15.33
2017-08-11T00:05:45.857Z,15.28
2017-08-11T00:08:13.337Z,15.29
2017-08-11T00:10:40.794Z,15.24
2017-08-11T00:13:08.849Z,15.25
2017-08-11T00:15:36.321Z,15.30
2017-08-11T00:18:03.797Z,15.33
2017-08-11T00:20:31.232Z,15.35
2017-08-11T00:22:58.704Z,15.38
2017-08-11T00:25:26.343Z,15.20
2017-08-11T00:27:56.415Z,15.14
2017-08-11T00:30:23.939Z,15.18
2017-08-11T00:32:51.520Z,15.24
2017-08-11T00:35:19.066Z,15.12
2017-08-11T00:37:46.513Z,15.13
2017-08-11T00:40:13.983Z,15.09
2017-08-11T00:42:41.547Z,15.09
2017-08-11T00:45:09.038Z,14.99
2017-08-11T00:47:36.493Z,14.89
2017-08-11T00:50:03.972Z,14.93
2017-08-11T00:52:31.444Z,14.93
2017-08-11T00:54:58.995Z,14.69
2017-08-11T00:57:26.455Z,14.80
2017-08-11T00:59:53.934Z,15.09
2017-08-11T01:02:21.577Z,15.10
2017-08-11T01:04:49.051Z,15.14
2017-08-11T01:07:16.605Z,15.35
2017-08-11T01:09:44.076Z,15.50
2017-08-11T01:12:11.601Z,15.47
2017-08-11T01:14:39.189Z,15.50
2017-08-11T01:17:06.743Z,15.45
2017-08-11T01:19:34.194Z,15.58
2017-08-11T01:22:01.668Z,15.60
2017-08-11T01:24:29.114Z,15.79
2017-08-11T01:26:56.757Z,15.70
2017-08-11T01:29:24.431Z,15.74
2017-08-11T01:31:51.903Z,15.90
2017-08-11T01:34:19.445Z,15.71
2017-08-11T01:36:46.954Z,15.74
2017-08-11T01:39:14.410Z,15.67
2017-08-11T01:41:41.918Z,15.70
2017-08-11T01:44:09.362Z,15.58
2017-08-11T01:46:36.839Z,15.43
2017-08-11T01:49:04.377Z,15.43
2017-08-11T01:51:31.951Z,15.26
2017-08-11T01:53:59.489Z,15.10
2017-08-11T01:56:26.965Z,15.22
2017-08-11T01:58:54.440Z,15.14
2017-08-11T02:01:21.961Z,15.15
2017-08-11T02:03:49.537Z,15.08
2017-08-11T02:06:17.111Z,15.01
2017-08-11T02:08:44.565Z,14.48
2017-08-11T02:11:12.116Z,14.48
2017-08-11T02:13:39.676Z,14.26
2017-08-11T02:16:07.127Z,14.39
2017-08-11T02:18:34.891Z,14.40
2017-08-11T02:21:02.360Z,14.38
2017-08-11T02:23:29.889Z,14.58
2017-08-11T02:25:57.370Z,14.83
2017-08-11T02:28:24.851Z,14.93
2017-08-11T02:30:52.322Z,15.14
2017-08-11T02:33:19.936Z,15.07
2017-08-11T02:35:47.403Z,15.12
2017-08-11T02:38:14.934Z,15.20
2017-08-11T02:40:42.408Z,15.43
2017-08-11T02:43:09.917Z,15.53
2017-08-11T02:45:37.433Z,15.44
2017-08-11T02:48:04.889Z,15.52
2017-08-11T02:50:32.439Z,15.42
2017-08-11T02:52:59.911Z,15.55
2017-08-11T02:55:27.463Z,15.56
2017-08-11T02:57:55.013Z,15.71
2017-08-11T03:00:22.521Z,15.63
2017-08-11T03:02:49.980Z,15.55
2017-08-11T03:05:17.484Z,15.54
2017-08-11T03:07:45.077Z,15.59
2017-08-11T03:10:12.551Z,15.60
2017-08-11T03:12:39.995Z,15.58
2017-08-11T03:15:07.469Z,15.63
2017-08-11T03:17:34.963Z,15.63
2017-08-11T03:20:02.539Z,15.51
2017-08-11T03:22:30.001Z,15.48
2017-08-11T03:24:57.457Z,15.34
2017-08-11T03:27:24.946Z,15.15
2017-08-11T03:29:52.405Z,15.39
2017-08-11T03:32:19.869Z,15.48
2017-08-11T03:34:47.395Z,15.63
2017-08-11T03:37:14.983Z,15.55
2017-08-11T03:39:42.437Z,15.54
2017-08-11T03:42:09.934Z,15.46
2017-08-11T03:44:37.401Z,15.60
2017-08-11T03:47:04.871Z,15.51
2017-08-11T03:49:32.436Z,15.49
2017-08-11T03:51:59.971Z,15.45
2017-08-11T03:54:27.406Z,15.34
2017-08-11T03:56:54.861Z,15.02
2017-08-11T03:59:22.443Z,15.04
2017-08-11T04:01:49.903Z,15.22
2017-08-11T04:04:17.445Z,15.24
2017-08-11T04:06:44.885Z,15.25
2017-08-11T04:09:12.355Z,15.49
2017-08-11T04:11:39.816Z,15.70
2017-08-11T04:14:07.297Z,15.66
2017-08-11T04:16:34.831Z,16.04
2017-08-11T04:19:02.312Z,15.76
2017-08-11T04:21:29.859Z,15.80
2017-08-11T04:23:57.331Z,15.84
2017-08-11T04:26:24.885Z,15.88
2017-08-11T04:28:52.364Z,15.86
2017-08-11T04:31:19.819Z,15.87
2017-08-11T04:33:47.300Z,15.93
2017-08-11T04:36:14.807Z,15.97
2017-08-11T04:38:42.299Z,15.95
2017-08-11T04:41:09.757Z,15.76
2017-08-11T04:43:37.266Z,15.84
2017-08-11T04:46:04.743Z,15.83
2017-08-11T04:48:32.493Z,15.84
2017-08-11T04:51:00.059Z,15.85
2017-08-11T04:53:27.523Z,16.06
2017-08-11T04:55:55.072Z,16.24
2017-08-11T04:58:22.535Z,16.03
2017-08-11T05:00:50.291Z,15.97
2017-08-11T05:03:17.748Z,16.03
2017-08-11T05:05:45.320Z,16.06
2017-08-11T05:08:12.776Z,16.00
2017-08-11T05:10:40.324Z,16.02
2017-08-11T05:13:07.787Z,15.98
2017-08-11T05:15:35.259Z,15.96
2017-08-11T05:18:02.785Z,15.81
2017-08-11T05:20:30.229Z,15.94
2017-08-11T05:22:57.809Z,15.96
2017-08-11T05:25:25.266Z,15.92
2017-08-11T05:27:52.835Z,15.99
2017-08-11T05:30:20.365Z,15.96
2017-08-11T05:32:47.840Z,15.90
2017-08-11T05:35:15.297Z,15.89
2017-08-11T05:37:42.789Z,16.01
2017-08-11T05:40:10.251Z,16.05
2017-08-11T05:42:37.735Z,15.84
2017-08-11T05:45:05.224Z,16.04
2017-08-11T05:47:32.690Z,15.99
2017-08-11T05:50:00.151Z,15.85
2017-08-11T05:52:27.589Z,15.98
2017-08-11T05:54:55.059Z,16.03
2017-08-11T05:57:22.524Z,16.17
2017-08-11T05:59:50.069Z,16.22
2017-08-11T06:02:17.521Z,16.27
2017-08-11T06:04:44.999Z,16.29
2017-08-11T06:07:12.525Z,16.29
2017-08-11T06:09:40.103Z,16.26
2017-08-11T06:12:07.671Z,16.34
2017-08-11T06:14:35.213Z,16.35
2017-08-11T06:17:02.653Z,16.40
2017-08-11T06:19:30.132Z,16.68
2017-08-11T06:21:57.595Z,16.71
2017-08-11T06:24:25.095Z,16.70
2017-08-11T06:26:52.597Z,16.56
2017-08-11T06:29:20.056Z,16.52
2017-08-11T06:31:47.529Z,16.56
2017-08-11T06:34:15.045Z,16.59
2017-08-11T06:36:42.515Z,16.63
2017-08-11T06:39:10.007Z,16.75
2017-08-11T06:41:37.540Z,17.11
2017-08-11T06:44:05.023Z,16.96
2017-08-11T06:46:32.502Z,16.92
2017-08-11T06:49:00.013Z,16.80
2017-08-11T06:51:27.571Z,17.13
2017-08-11T06:53:55.012Z,17.09
2017-08-11T06:56:22.484Z,16.81
2017-08-11T06:58:49.940Z,16.91
2017-08-11T07:01:17.431Z,16.99
2017-08-11T07:03:44.957Z,16.99
2017-08-11T07:06:12.397Z,16.79
2017-08-11T07:08:39.892Z,16.62
2017-08-11T07:11:07.341Z,16.68
2017-08-11T07:13:34.938Z,16.75
2017-08-11T07:16:02.448Z,16.71
2017-08-11T07:18:30.152Z,16.70
2017-08-11T07:20:57.616Z,16.75
2017-08-11T07:23:25.119Z,16.65
2017-08-11T07:25:52.592Z,16.73
2017-08-11T07:28:20.070Z,16.77
2017-08-11T07:30:47.599Z,16.80
2017-08-11T07:33:15.204Z,16.91
2017-08-11T07:35:42.664Z,16.98
2017-08-11T07:38:10.132Z,17.09
2017-08-11T07:40:37.608Z,17.35
2017-08-11T07:43:05.061Z,17.34
2017-08-11T07:45:32.690Z,17.53
2017-08-11T07:48:00.148Z,17.55
2017-08-11T07:50:27.656Z,17.44
2017-08-11T07:52:55.206Z,17.48
2017-08-11T07:55:22.772Z,17.87
2017-08-11T07:57:50.227Z,17.54
2017-08-11T08:00:17.786Z,17.39
2017-08-11T08:02:45.260Z,17.43
2017-08-11T08:05:12.803Z,17.63
2017-08-11T08:07:40.361Z,17.70
2017-08-11T08:10:07.923Z,17.75
2017-08-11T08:12:35.487Z,17.99
2017-08-11T08:15:02.930Z,17.95
2017-08-11T08:17:30.404Z,18.35
2017-08-11T08:19:57.880Z,18.09
2017-08-11T08:22:25.405Z,18.02
2017-08-11T08:24:52.877Z,18.29
2017-08-11T08:27:20.348Z,18.56
2017-08-11T08:29:47.803Z,18.68
2017-08-11T08:32:15.336Z,18.68
2017-08-11T08:34:42.815Z,18.65
2017-08-11T08:37:10.349Z,18.43
2017-08-11T08:39:37.806Z,18.76
2017-08-11T08:42:05.283Z,18.67
2017-08-11T08:44:32.737Z,18.54
2017-08-11T08:47:00.222Z,18.60
2017-08-11T08:49:27.733Z,18.29
2017-08-11T08:51:55.193Z,18.24
2017-08-11T08:54:22.668Z,18.72
2017-08-11T08:56:50.135Z,18.33
2017-08-11T08:59:17.674Z,18.16
2017-08-11T09:01:45.129Z,18.37
2017-08-11T09:04:12.678Z,18.40
2017-08-11T09:06:40.304Z,18.32
2017-08-11T09:09:07.795Z,18.25
2017-08-11T09:11:35.273Z,18.29
2017-08-11T09:14:02.811Z,18.15
2017-08-11T09:16:30.272Z,18.08
2017-08-11T09:18:57.749Z,17.98
2017-08-11T09:21:25.203Z,18.12
2017-08-11T09:23:52.739Z,17.98
2017-08-11T09:26:32.061Z,17.73
2017-08-11T09:29:11.332Z,18.02
2017-08-11T09:31:50.847Z,18.02
2017-08-11T09:34:30.180Z,17.87
2017-08-11T09:36:57.636Z,17.88
2017-08-11T09:39:25.109Z,18.00
2017-08-11T09:41:52.563Z,17.94
2017-08-11T09:44:20.023Z,18.02
2017-08-11T09:46:47.571Z,18.23
2017-08-11T09:49:15.130Z,18.34
2017-08-11T09:51:42.668Z,18.19
2017-08-11T09:54:10.228Z,18.11
2017-08-11T09:56:37.905Z,18.11
2017-08-11T09:59:05.461Z,18.33
2017-08-11T10:01:32.943Z,18.31
2017-08-11T10:04:00.426Z,18.32
2017-08-11T10:06:27.882Z,18.35
2017-08-11T10:08:55.395Z,18.32
2017-08-11T10:11:22.858Z,18.35
2017-08-11T10:13:50.405Z,18.15
2017-08-11T10:16:17.945Z,18.39
2017-08-11T10:18:45.420Z,18.06
2017-08-11T10:21:12.971Z,18.09
2017-08-11T10:23:40.430Z,18.26
2017-08-11T10:26:07.996Z,18.32
2017-08-11T10:28:35.558Z,18.41
2017-08-11T10:31:03.112Z,18.40
2017-08-11T10:33:30.583Z,18.32
2017-08-11T10:35:58.090Z,18.26
2017-08-11T10:38:25.579Z,18.50
2017-08-11T10:40:53.034Z,18.43
2017-08-11T10:43:20.484Z,18.48
2017-08-11T10:45:48.312Z,18.26
2017-08-11T10:48:15.805Z,18.21
2017-08-11T10:50:43.235Z,18.25
2017-08-11T10:53:10.711Z,18.46
2017-08-11T10:55:38.177Z,18.32
2017-08-11T10:58:05.643Z,18.45
2017-08-11T11:00:33.154Z,18.32
2017-08-11T11:03:00.643Z,18.36
2017-08-11T11:05:28.116Z,18.30
2017-08-11T11:07:55.807Z,18.23
2017-08-11T11:10:23.389Z,18.18
2017-08-11T11:12:50.895Z,18.26
2017-08-11T11:15:18.451Z,18.06
2017-08-11T11:17:45.921Z,18.15
2017-08-11T11:20:13.469Z,18.36
2017-08-11T11:22:40.901Z,18.37
2017-08-11T11:25:08.386Z,18.29
2017-08-11T11:27:35.835Z,18.35
2017-08-11T11:30:03.382Z,18.40
2017-08-11T11:32:30.820Z,18.25
2017-08-11T11:34:58.306Z,18.19
2017-08-11T11:37:25.767Z,18.04
2017-08-11T11:39:53.223Z,18.21
2017-08-11T11:42:20.662Z,18.20
2017-08-11T11:44:48.238Z,18.07
2017-08-11T11:47:15.797Z,18.30
2017-08-11T11:49:43.351Z,18.24
2017-08-11T11:52:10.820Z,18.25
2017-08-11T11:54:38.288Z,18.36
2017-08-11T11:57:05.827Z,18.21
2017-08-11T11:59:33.271Z,18.00
2017-08-11T12:02:00.857Z,18.00
2017-08-11T12:04:28.295Z,18.09
2017-08-11T12:06:55.759Z,18.08
2017-08-11T12:09:23.319Z,18.21
2017-08-11T12:11:50.873Z,18.19
2017-08-11T12:14:19.144Z,18.19
2017-08-11T12:16:46.626Z,18.00
2017-08-11T12:19:14.164Z,18.09
2017-08-11T12:21:41.673Z,18.11
2017-08-11T12:24:09.337Z,18.14
2017-08-11T12:26:36.801Z,18.10
2017-08-11T12:29:04.297Z,18.02
2017-08-11T12:31:31.764Z,18.16
2017-08-11T12:33:59.311Z,18.10
2017-08-11T12:36:26.868Z,18.15
2017-08-11T12:38:54.309Z,18.03
2017-08-11T12:41:21.869Z,18.26
2017-08-11T12:43:49.310Z,18.35
2017-08-11T12:46:16.760Z,18.28
2017-08-11T12:48:44.255Z,18.44
2017-08-11T12:51:11.698Z,18.31
2017-08-11T12:53:39.681Z,18.22
2017-08-11T12:56:07.371Z,18.27
2017-08-11T12:58:34.859Z,18.23
2017-08-11T13:01:02.362Z,18.12
2017-08-11T13:03:29.832Z,18.11
2017-08-11T13:05:58.237Z,18.10
2017-08-11T13:08:25.753Z,18.08
2017-08-11T13:10:53.289Z,17.98
2017-08-11T13:13:20.818Z,18.11
2017-08-11T13:15:48.324Z,18.20
2017-08-11T13:18:16.187Z,18.17
2017-08-11T13:20:43.748Z,18.31
2017-08-11T13:23:11.240Z,18.40
2017-08-11T13:25:38.766Z,18.33
2017-08-11T13:28:06.209Z,18.38
2017-08-11T13:30:33.893Z,18.24
2017-08-11T13:33:01.341Z,18.48
2017-08-11T13:35:28.811Z,18.58
2017-08-11T13:37:56.260Z,18.52
2017-08-11T13:40:23.731Z,18.71
2017-08-11T13:42:52.031Z,18.59
2017-08-11T13:45:19.508Z,18.43
2017-08-11T13:47:47.000Z,18.66
2017-08-11T13:50:14.461Z,18.45
2017-08-11T13:52:41.911Z,18.65
2017-08-11T13:55:09.706Z,18.62
2017-08-11T13:57:37.235Z,18.62
2017-08-11T14:00:04.710Z,18.49
2017-08-11T14:02:32.249Z,18.78
2017-08-11T14:04:59.713Z,18.81
2017-08-11T14:07:27.149Z,18.54
2017-08-11T14:09:54.600Z,18.75
2017-08-11T14:12:22.112Z,18.79
2017-08-11T14:14:50.824Z,18.81
2017-08-11T14:17:18.316Z,18.99
2017-08-11T14:19:45.762Z,18.80
2017-08-11T14:22:13.325Z,18.76
2017-08-11T14:24:46.376Z,18.52
2017-08-11T14:27:13.888Z,18.39
2017-08-11T14:29:41.437Z,18.51
2017-08-11T14:32:08.919Z,18.63
2017-08-11T14:34:36.373Z,18.65
2017-08-11T14:37:03.853Z,18.71
2017-08-11T14:39:31.378Z,18.60
2017-08-11T14:41:58.900Z,18.29
2017-08-11T14:44:26.485Z,18.45
2017-08-11T14:46:53.941Z,18.68
2017-08-11T14:49:21.406Z,18.85
2017-08-11T14:51:48.937Z,18.21
2017-08-11T14:54:16.513Z,18.43
2017-08-11T14:56:43.958Z,18.29
2017-08-11T14:59:11.439Z,18.71
2017-08-11T15:01:38.984Z,18.50
2017-08-11T15:04:06.463Z,18.40
2017-08-11T15:06:33.919Z,18.22
2017-08-11T15:09:01.446Z,18.26
2017-08-11T15:11:28.895Z,18.46
2017-08-11T15:13:56.357Z,18.03
2017-08-11T15:16:23.832Z,17.89
2017-08-11T15:18:51.388Z,17.72
2017-08-11T15:21:18.883Z,17.60
2017-08-11T15:23:46.349Z,17.65
2017-08-11T15:26:13.911Z,17.80
2017-08-11T15:28:41.367Z,17.66
2017-08-11T15:31:08.875Z,17.49
2017-08-11T15:33:36.339Z,17.60
2017-08-11T15:36:03.848Z,17.90
2017-08-11T15:38:31.339Z,18.33
2017-08-11T15:40:58.819Z,18.29
2017-08-11T15:43:26.345Z,17.79
2017-08-11T15:45:53.919Z,17.85
2017-08-11T15:48:21.374Z,18.06
2017-08-11T15:50:48.841Z,17.87
2017-08-11T15:53:16.392Z,17.83
2017-08-11T15:55:43.948Z,17.73
2017-08-11T15:58:11.405Z,17.74
2017-08-11T16:00:39.368Z,17.61
2017-08-11T16:03:06.824Z,17.73
2017-08-11T16:05:34.281Z,17.55
2017-08-11T16:08:01.795Z,17.48
2017-08-11T16:10:29.251Z,17.40
2017-08-11T16:12:57.127Z,17.44
2017-08-11T16:15:24.584Z,17.41
2017-08-11T16:17:52.049Z,17.43
2017-08-11T16:20:19.500Z,17.50
2017-08-11T16:22:46.974Z,17.68
2017-08-11T16:25:14.431Z,17.79
2017-08-11T16:27:41.908Z,17.89
2017-08-11T16:30:09.361Z,17.83
2017-08-11T16:32:36.843Z,17.75
2017-08-11T16:35:04.290Z,17.50
2017-08-11T16:37:31.851Z,17.55
2017-08-11T16:39:59.303Z,17.59
2017-08-11T16:42:26.799Z,17.55
2017-08-11T16:44:54.288Z,17.56
2017-08-11T16:47:21.746Z,17.88
2017-08-11T16:49:49.214Z,17.92
2017-08-11T16:52:16.777Z,17.84
2017-08-11T16:54:44.271Z,17.59
2017-08-11T16:57:11.796Z,17.48
2017-08-11T16:59:39.288Z,17.50
2017-08-11T17:02:06.744Z,17.44
2017-08-11T17:04:34.216Z,17.50
2017-08-11T17:07:01.669Z,17.54
2017-08-11T17:09:29.139Z,17.54
2017-08-11T17:11:56.600Z,17.45
2017-08-11T17:14:24.085Z,17.39
2017-08-11T17:16:51.546Z,17.42
2017-08-11T17:19:19.023Z,17.33
2017-08-11T17:21:46.550Z,17.33
2017-08-11T17:24:14.020Z,17.36
2017-08-11T17:26:41.483Z,17.26
2017-08-11T17:29:08.967Z,17.14
2017-08-11T17:31:36.423Z,17.13
2017-08-11T17:34:03.947Z,17.04
2017-08-11T17:36:31.415Z,17.02
2017-08-11T17:38:58.862Z,17.09
2017-08-11T17:41:26.417Z,17.38
2017-08-11T17:43:53.873Z,17.59
2017-08-11T17:46:21.343Z,17.68
2017-08-11T17:48:48.878Z,17.58
2017-08-11T17:51:16.448Z,17.55
2017-08-11T17:53:43.905Z,17.46
2017-08-11T17:56:11.392Z,17.20
2017-08-11T17:58:38.955Z,17.05
2017-08-11T18:01:06.480Z,17.02
2017-08-11T18:03:33.925Z,17.25
2017-08-11T18:06:01.500Z,16.95
2017-08-11T18:08:29.052Z,16.86
2017-08-11T18:10:56.552Z,16.98
2017-08-11T18:13:24.066Z,17.09
2017-08-11T18:15:51.551Z,16.99
2017-08-11T18:18:19.084Z,16.90
2017-08-11T18:20:46.540Z,16.80
2017-08-11T18:23:14.036Z,16.90
2017-08-11T18:25:41.495Z,16.88
2017-08-11T18:28:08.959Z,16.97
2017-08-11T18:30:36.397Z,16.84
2017-08-11T18:33:03.872Z,16.85
2017-08-11T18:35:31.331Z,16.83
2017-08-11T18:37:58.836Z,16.79
2017-08-11T18:40:26.282Z,16.78
2017-08-11T18:42:53.788Z,16.76
2017-08-11T18:45:21.292Z,16.71
2017-08-11T18:47:48.749Z,16.69
2017-08-11T18:50:16.200Z,16.67
2017-08-11T18:52:43.661Z,16.63
2017-08-11T18:55:11.147Z,16.62
2017-08-11T18:57:38.623Z,16.58
2017-08-11T19:00:06.085Z,16.63
2017-08-11T19:02:33.658Z,16.66
2017-08-11T19:05:01.132Z,16.61
2017-08-11T19:07:28.602Z,16.56
2017-08-11T19:09:56.132Z,16.59
2017-08-11T19:12:23.585Z,16.62
2017-08-11T19:14:51.092Z,16.63
2017-08-11T19:17:18.559Z,16.56
2017-08-11T19:19:46.042Z,16.34
2017-08-11T19:22:13.563Z,16.51
2017-08-11T19:24:41.028Z,16.36
2017-08-11T19:27:08.480Z,16.33
2017-08-11T19:29:36.023Z,16.14
2017-08-11T19:32:03.457Z,16.33
2017-08-11T19:34:30.949Z,16.23
2017-08-11T19:36:58.424Z,16.27
2017-08-11T19:39:25.875Z,16.19
2017-08-11T19:41:53.417Z,16.18
2017-08-11T19:44:20.876Z,16.30
2017-08-11T19:46:48.366Z,16.35
2017-08-11T19:49:15.824Z,16.37
2017-08-11T19:51:43.285Z,16.39
2017-08-11T19:54:10.739Z,16.50
2017-08-11T19:56:38.261Z,16.51
2017-08-11T19:59:05.719Z,16.51
2017-08-11T20:01:33.275Z,16.49
2017-08-11T20:04:00.726Z,16.40
2017-08-11T20:06:28.200Z,16.37
2017-08-11T20:08:55.660Z,16.38
2017-08-11T20:11:23.354Z,16.45
2017-08-11T20:13:50.853Z,16.30
2017-08-11T20:16:18.321Z,16.24
2017-08-11T20:18:45.815Z,16.32
2017-08-11T20:21:13.390Z,16.22
2017-08-11T20:23:40.985Z,16.35
2017-08-11T20:26:08.429Z,16.24
2017-08-11T20:28:35.898Z,16.49
2017-08-11T20:31:03.356Z,16.30
2017-08-11T20:33:30.949Z,16.33
2017-08-11T20:35:58.578Z,16.23
2017-08-11T20:38:26.097Z,16.28
2017-08-11T20:40:53.612Z,16.33
2017-08-11T20:43:21.163Z,16.31
2017-08-11T20:45:48.610Z,16.32
2017-08-11T20:48:16.415Z,16.43
2017-08-11T20:50:43.939Z,16.27
2017-08-11T20:53:11.472Z,16.30
2017-08-11T20:55:38.946Z,16.21
2017-08-11T20:58:06.403Z,16.20
2017-08-11T21:00:34.131Z,16.17
2017-08-11T21:03:01.584Z,16.22
2017-08-11T21:05:29.063Z,16.29
2017-08-11T21:07:56.515Z,16.28
2017-08-11T21:10:23.999Z,16.21
2017-08-11T21:12:51.626Z,16.01
2017-08-11T21:15:19.113Z,15.93
2017-08-11T21:17:46.676Z,15.87
2017-08-11T21:20:14.155Z,15.88
2017-08-11T21:22:41.597Z,15.81
2017-08-11T21:25:09.067Z,15.73
2017-08-11T21:27:36.513Z,15.92
2017-08-11T21:30:03.992Z,16.00
2017-08-11T21:32:31.520Z,15.95
2017-08-11T21:34:59.079Z,15.93
2017-08-11T21:37:26.555Z,15.87
2017-08-11T21:39:54.037Z,15.94
2017-08-11T21:42:21.601Z,15.88
2017-08-11T21:44:49.067Z,15.79
2017-08-11T21:47:16.575Z,15.97
2017-08-11T21:49:44.039Z,15.97
2017-08-11T21:52:11.519Z,16.18
2017-08-11T21:54:38.995Z,16.05
2017-08-11T21:57:06.477Z,15.67
2017-08-11T21:59:33.932Z,15.78
2017-08-11T22:02:01.416Z,15.73
2017-08-11T22:04:28.857Z,15.52
2017-08-11T22:06:56.427Z,15.31
2017-08-11T22:09:23.887Z,15.18
2017-08-11T22:11:51.367Z,15.44
2017-08-11T22:14:18.880Z,15.36
2017-08-11T22:16:46.348Z,15.43
2017-08-11T22:19:13.910Z,15.53
2017-08-11T22:21:41.465Z,15.60
2017-08-11T22:24:08.934Z,15.69
2017-08-11T22:26:36.387Z,15.67
2017-08-11T22:29:04.103Z,15.68
2017-08-11T22:31:31.580Z,15.83
2017-08-11T22:33:59.160Z,15.80
2017-08-11T22:36:26.715Z,15.86
2017-08-11T22:38:54.229Z,15.91
2017-08-11T22:41:22.149Z,16.06
2017-08-11T22:43:49.699Z,16.11
2017-08-11T22:46:17.167Z,16.04
2017-08-11T22:48:44.653Z,16.08
2017-08-11T22:51:12.103Z,15.99
2017-08-11T22:53:39.559Z,16.05
2017-08-11T22:56:07.025Z,15.87
2017-08-11T22:58:34.480Z,15.78
2017-08-11T23:01:01.955Z,15.81
2017-08-11T23:03:29.455Z,15.70
2017-08-11T23:05:57.012Z,15.74
2017-08-11T23:08:24.491Z,15.69
2017-08-11T23:10:52.033Z,15.75
2017-08-11T23:13:19.491Z,15.91
2017-08-11T23:15:46.957Z,15.77
2017-08-11T23:18:14.500Z,15.67
2017-08-11T23:20:41.978Z,15.82
2017-08-11T23:23:09.527Z,15.93
2017-08-11T23:25:37.085Z,15.91
2017-08-11T23:28:04.538Z,15.89
2017-08-11T23:30:32.397Z,15.68
2017-08-11T23:32:59.955Z,15.63
2017-08-11T23:35:27.435Z,15.35
2017-08-11T23:37:54.971Z,15.26
2017-08-11T23:40:22.413Z,15.55
2017-08-11T23:42:49.951Z,15.74
2017-08-11T23:45:17.397Z,15.59
2017-08-11T23:47:44.891Z,15.47
2017-08-11T23:50:12.359Z,15.62
2017-08-11T23:52:39.913Z,15.71
2017-08-11T23:55:07.389Z,15.80
2017-08-11T23:57:34.863Z,15.49
